Time;durP1;ratioP1;P1;durP2;ratioP2;P2;SDS_P1;SDS_P2;PMS_P1;PMS_P2;Temp;Humidity;BMP_temperature;BMP_pressure;BME280_temperature;BME280_humidity;BME280_pressure;Samples;Min_cycle;Max_cycle;Signal;HPM_P1;HPM_P2
2021/03/07 00:00:25;;;;;;;10.73;8.43;;;1.80;99.90;;;;;;5037617;28;20269;-71
2021/03/07 00:02:51;;;;;;;11.40;8.37;;;1.90;99.90;;;;;;5056968;28;20269;-71
2021/03/07 00:05:18;;;;;;;10.40;8.03;;;1.90;99.90;;;;;;5056973;28;20420;-71
2021/03/07 00:07:48;;;;;;;11.27;7.60;;;1.90;99.90;;;;;;5057090;28;20451;-71
2021/03/07 00:10:15;;;;;;;10.33;7.47;;;2.00;99.90;;;;;;5056389;28;20429;-71
2021/03/07 00:12:42;;;;;;;13.37;8.23;;;2.00;99.90;;;;;;5055295;28;20748;-71
2021/03/07 00:15:10;;;;;;;10.73;8.57;;;2.10;99.90;;;;;;5056956;28;20411;-71
2021/03/07 00:17:36;;;;;;;8.80;7.40;;;2.10;99.90;;;;;;5057276;28;20404;-71
2021/03/07 00:20:04;;;;;;;10.87;7.80;;;2.10;99.90;;;;;;5056726;28;20464;-71
2021/03/07 00:22:29;;;;;;;11.80;7.50;;;2.20;99.90;;;;;;5055766;28;20965;-71
2021/03/07 00:24:56;;;;;;;8.77;7.10;;;2.10;99.90;;;;;;5056155;28;20449;-71
2021/03/07 00:27:21;;;;;;;9.67;6.93;;;2.20;99.90;;;;;;5057276;28;20520;-71
2021/03/07 00:29:47;;;;;;;8.30;7.50;;;2.20;99.90;;;;;;5056617;28;20480;-71
2021/03/07 00:32:12;;;;;;;8.80;7.80;;;2.20;99.90;;;;;;5052695;28;20255;-71
2021/03/07 00:34:38;;;;;;;7.83;6.40;;;2.20;99.90;;;;;;5042115;28;20174;-71
2021/03/07 00:37:04;;;;;;;12.37;7.63;;;2.20;99.90;;;;;;5055144;28;20223;-71
2021/03/07 00:39:32;;;;;;;8.30;6.50;;;2.20;99.90;;;;;;5056023;28;20611;-71
2021/03/07 00:42:00;;;;;;;11.63;7.73;;;2.20;99.90;;;;;;5056664;28;20479;-71
2021/03/07 00:44:26;;;;;;;7.63;6.93;;;2.20;99.90;;;;;;5046290;28;20425;-71
2021/03/07 00:46:52;;;;;;;7.03;6.33;;;2.20;99.90;;;;;;5039066;28;20447;-71
2021/03/07 00:49:21;;;;;;;7.70;6.30;;;2.20;99.90;;;;;;5036742;28;20414;-71
2021/03/07 00:51:48;;;;;;;8.80;7.10;;;2.20;99.90;;;;;;5036537;28;20401;-71
2021/03/07 00:54:14;;;;;;;11.63;7.33;;;2.10;99.90;;;;;;5033209;28;20992;-71
2021/03/07 00:56:39;;;;;;;9.87;7.13;;;2.00;99.90;;;;;;5056468;28;20405;-71
2021/03/07 00:59:05;;;;;;;7.47;6.70;;;1.90;99.90;;;;;;5053543;28;20412;-71
2021/03/07 01:01:31;;;;;;;7.40;6.30;;;2.00;99.90;;;;;;5055860;28;20198;-71
2021/03/07 01:03:57;;;;;;;13.33;7.23;;;1.90;99.90;;;;;;5055790;28;20198;-71
2021/03/07 01:06:22;;;;;;;7.50;6.23;;;1.80;99.90;;;;;;5054569;28;20481;-71
2021/03/07 01:08:48;;;;;;;7.53;6.70;;;1.80;99.90;;;;;;5055620;28;20167;-71
2021/03/07 01:11:13;;;;;;;10.20;7.20;;;1.80;99.90;;;;;;5055976;28;20197;-71
2021/03/07 01:13:39;;;;;;;7.90;6.60;;;1.80;99.90;;;;;;5056117;28;20297;-72
2021/03/07 01:16:05;;;;;;;8.03;6.90;;;1.90;99.90;;;;;;5049255;28;20178;-71
2021/03/07 01:18:30;;;;;;;7.90;7.10;;;1.80;99.90;;;;;;5036755;28;20262;-71
2021/03/07 01:20:57;;;;;;;10.50;7.57;;;1.70;99.90;;;;;;5044536;28;20473;-71
2021/03/07 01:23:24;;;;;;;10.07;7.47;;;1.70;99.90;;;;;;5053806;28;20178;-71
2021/03/07 01:25:50;;;;;;;9.60;7.30;;;1.80;99.90;;;;;;5041617;28;20446;-71
2021/03/07 01:28:15;;;;;;;8.93;6.90;;;1.70;99.90;;;;;;5050363;28;20417;-70
2021/03/07 01:30:43;;;;;;;10.60;7.37;;;1.60;99.90;;;;;;5056761;28;20201;-71
2021/03/07 01:33:09;;;;;;;7.70;6.37;;;1.50;99.90;;;;;;5051039;28;20171;-71
2021/03/07 01:35:36;;;;;;;7.37;5.93;;;1.50;99.90;;;;;;5037897;28;20459;-70
2021/03/07 01:38:02;;;;;;;12.73;8.20;;;1.60;99.90;;;;;;5035507;28;20409;-71
2021/03/07 01:40:46;;;;;;;9.23;6.53;;;1.60;99.90;;;;;;5049042;28;20956;-71
2021/03/07 01:43:12;;;;;;;7.70;6.50;;;1.70;99.90;;;;;;5055501;28;20416;-70
2021/03/07 01:45:38;;;;;;;8.37;6.77;;;1.60;99.90;;;;;;5049090;28;20995;-71
2021/03/07 01:48:06;;;;;;;11.27;7.67;;;1.60;99.90;;;;;;5034988;28;20493;-71
2021/03/07 01:50:34;;;;;;;9.63;6.97;;;1.70;99.90;;;;;;5035318;28;20957;-71
2021/03/07 01:53:01;;;;;;;7.77;6.93;;;1.70;99.90;;;;;;5035074;28;20191;-70
2021/03/07 01:55:35;;;;;;;8.63;6.80;;;1.70;99.90;;;;;;5036429;28;20759;-70
2021/03/07 01:58:11;;;;;;;7.63;6.50;;;1.80;99.90;;;;;;5055596;28;20939;-71
2021/03/07 02:00:38;;;;;;;8.30;6.80;;;1.80;99.90;;;;;;5056066;28;20468;-70
2021/03/07 02:03:03;;;;;;;11.23;7.37;;;1.80;99.90;;;;;;5056302;28;20504;-70
2021/03/07 02:05:30;;;;;;;7.40;6.37;;;1.80;99.90;;;;;;5055899;28;20543;-71
2021/03/07 02:07:56;;;;;;;7.07;6.33;;;1.80;99.90;;;;;;5053341;28;20420;-71
2021/03/07 02:10:24;;;;;;;8.10;6.37;;;1.80;99.90;;;;;;5055257;28;20448;-71
2021/03/07 02:12:53;;;;;;;7.63;6.60;;;1.80;99.90;;;;;;5056868;28;20557;-70
2021/03/07 02:15:20;;;;;;;7.90;7.10;;;1.70;99.90;;;;;;5072074;28;20476;-71
2021/03/07 02:17:47;;;;;;;8.03;6.30;;;1.70;99.90;;;;;;5067157;28;20816;-71
2021/03/07 02:20:16;;;;;;;9.27;6.13;;;1.70;99.90;;;;;;5055052;28;20463;-70
2021/03/07 02:22:47;;;;;;;7.43;6.73;;;1.70;99.90;;;;;;5055169;28;20421;-71
2021/03/07 02:25:13;;;;;;;7.47;6.70;;;1.70;99.90;;;;;;5054772;28;20413;-70
2021/03/07 02:27:39;;;;;;;7.97;6.73;;;1.60;99.90;;;;;;5052933;28;20456;-71
2021/03/07 02:30:12;;;;;;;6.80;6.00;;;1.70;99.90;;;;;;5032965;28;20468;-71
2021/03/07 02:32:43;;;;;;;9.20;6.03;;;1.70;99.90;;;;;;5034641;28;20171;-71
2021/03/07 02:35:15;;;;;;;6.63;6.03;;;1.70;99.90;;;;;;5042692;28;20429;-71
2021/03/07 02:37:46;;;;;;;10.87;7.20;;;1.60;99.90;;;;;;5053000;28;20760;-71
2021/03/07 02:40:13;;;;;;;9.70;6.47;;;1.70;99.90;;;;;;5037568;28;20612;-71
2021/03/07 02:42:42;;;;;;;7.97;6.67;;;1.60;99.90;;;;;;5034073;28;20402;-71
2021/03/07 02:45:10;;;;;;;9.57;6.53;;;1.60;99.90;;;;;;5034481;28;20907;-71
2021/03/07 02:47:39;;;;;;;6.30;5.70;;;1.60;99.90;;;;;;5035483;28;20902;-71
2021/03/07 02:50:08;;;;;;;7.90;6.60;;;1.60;99.90;;;;;;5033601;28;20433;-71
2021/03/07 02:52:37;;;;;;;7.80;6.03;;;1.60;99.90;;;;;;5032556;28;20421;-71
2021/03/07 02:55:05;;;;;;;7.00;6.30;;;1.50;99.90;;;;;;5034006;28;20933;-71
2021/03/07 02:57:32;;;;;;;6.37;5.77;;;1.50;99.90;;;;;;5034919;28;20436;-70
2021/03/07 02:59:58;;;;;;;7.37;6.53;;;1.50;99.90;;;;;;5033530;28;20464;-71
2021/03/07 03:02:28;;;;;;;6.87;6.17;;;1.50;99.90;;;;;;5033692;28;20418;-71
2021/03/07 03:04:55;;;;;;;7.30;6.20;;;1.60;99.90;;;;;;5034208;28;20441;-71
2021/03/07 03:07:22;;;;;;;7.90;6.40;;;1.50;99.90;;;;;;5033910;28;20418;-71
2021/03/07 03:09:48;;;;;;;6.80;6.10;;;1.50;99.90;;;;;;5034860;28;20487;-70
2021/03/07 03:12:14;;;;;;;7.67;6.87;;;1.40;99.90;;;;;;5032596;28;20769;-71
2021/03/07 03:14:41;;;;;;;6.97;6.27;;;1.50;99.90;;;;;;5032299;28;20432;-71
2021/03/07 03:17:08;;;;;;;7.07;6.27;;;1.40;99.90;;;;;;5033883;28;20428;-71
2021/03/07 03:19:34;;;;;;;8.90;6.93;;;1.30;99.90;;;;;;5034138;28;20611;-71
2021/03/07 03:22:01;;;;;;;6.93;6.33;;;1.30;99.90;;;;;;5032981;28;20433;-71
2021/03/07 03:24:26;;;;;;;7.80;7.00;;;1.30;99.90;;;;;;5033702;28;20500;-70
2021/03/07 03:27:01;;;;;;;7.40;6.57;;;1.40;99.90;;;;;;5036802;28;20539;-71
2021/03/07 03:29:30;;;;;;;10.83;6.60;;;1.40;99.90;;;;;;5051697;28;20411;-71
2021/03/07 03:31:57;;;;;;;6.90;6.20;;;1.40;99.90;;;;;;5033386;28;20425;-71
2021/03/07 03:34:23;;;;;;;7.20;6.50;;;1.40;99.90;;;;;;5036862;28;20432;-71
2021/03/07 03:36:50;;;;;;;7.43;6.68;;;1.40;99.90;;;;;;5053542;28;20405;-70
2021/03/07 03:39:24;;;;;;;7.45;6.68;;;1.40;99.90;;;;;;5053174;28;20171;-71
2021/03/07 03:41:52;;;;;;;6.87;6.27;;;1.30;99.90;;;;;;5037264;28;20201;-71
2021/03/07 03:44:24;;;;;;;7.70;6.90;;;1.30;99.90;;;;;;5033525;28;20524;-70
2021/03/07 03:46:53;;;;;;;8.47;7.47;;;1.30;99.90;;;;;;5033406;28;20423;-70
2021/03/07 03:49:26;;;;;;;8.00;7.30;;;1.30;99.90;;;;;;5032983;28;20417;-70
2021/03/07 03:52:05;;;;;;;9.10;7.03;;;1.30;99.90;;;;;;5034366;28;20421;-70
2021/03/07 03:54:34;;;;;;;11.90;7.10;;;1.30;99.90;;;;;;5033376;28;20472;-70
2021/03/07 03:57:01;;;;;;;9.68;8.05;;;1.20;99.90;;;;;;5033666;28;20421;-70
2021/03/07 03:59:30;;;;;;;9.23;7.20;;;1.30;99.90;;;;;;5032938;28;20629;-70
2021/03/07 04:01:58;;;;;;;9.37;7.17;;;1.30;99.90;;;;;;5034406;28;20944;-70
2021/03/07 04:04:26;;;;;;;13.10;6.90;;;1.30;99.90;;;;;;5033267;28;20409;-70
2021/03/07 04:06:53;;;;;;;9.00;7.93;;;1.30;99.90;;;;;;5032718;28;20460;-70
2021/03/07 04:09:19;;;;;;;7.80;7.10;;;1.20;99.90;;;;;;5032837;28;20488;-70
2021/03/07 04:11:45;;;;;;;9.07;8.10;;;1.20;99.90;;;;;;5033013;28;20433;-70
2021/03/07 04:14:11;;;;;;;9.60;7.57;;;1.20;99.90;;;;;;5034242;28;20409;-70
2021/03/07 04:16:37;;;;;;;14.10;7.40;;;1.20;99.90;;;;;;5033311;28;20410;-70
2021/03/07 04:19:03;;;;;;;8.83;7.20;;;1.20;99.90;;;;;;5032874;28;20406;-70
2021/03/07 04:21:29;;;;;;;8.37;7.57;;;1.20;99.90;;;;;;5032845;28;20487;-70
2021/03/07 04:23:55;;;;;;;12.13;7.80;;;1.10;99.90;;;;;;5034500;28;20413;-70
2021/03/07 04:26:21;;;;;;;7.70;6.57;;;1.10;99.90;;;;;;5044206;28;20992;-70
2021/03/07 04:28:47;;;;;;;8.43;7.47;;;1.10;99.90;;;;;;5052935;28;20174;-70
2021/03/07 04:31:13;;;;;;;8.83;7.20;;;1.10;99.90;;;;;;5043177;28;20433;-70
2021/03/07 04:33:41;;;;;;;9.00;6.70;;;1.00;99.90;;;;;;5047498;28;20438;-70
2021/03/07 04:36:07;;;;;;;8.30;7.00;;;1.00;99.90;;;;;;5056761;28;20178;-70
2021/03/07 04:38:33;;;;;;;8.82;6.80;;;1.00;99.90;;;;;;5056238;28;20773;-70
2021/03/07 04:40:59;;;;;;;7.83;6.83;;;1.10;99.90;;;;;;5051796;28;20325;-70
2021/03/07 04:43:25;;;;;;;8.47;6.60;;;1.00;99.90;;;;;;5037486;28;20409;-71
2021/03/07 04:45:51;;;;;;;7.63;6.60;;;1.00;99.90;;;;;;5038249;28;20178;-71
2021/03/07 04:48:17;;;;;;;7.60;6.90;;;0.90;99.90;;;;;;5037881;28;20170;-71
2021/03/07 04:50:42;;;;;;;8.93;6.37;;;0.90;99.90;;;;;;5038525;28;20210;-70
2021/03/07 04:53:08;;;;;;;8.13;7.33;;;0.90;99.90;;;;;;5063398;28;20225;-71
2021/03/07 04:55:33;;;;;;;6.73;6.13;;;0.90;99.90;;;;;;5069078;28;20273;-71
2021/03/07 04:57:59;;;;;;;8.43;6.90;;;0.90;99.90;;;;;;5062436;28;20220;-70
2021/03/07 05:00:25;;;;;;;6.63;5.93;;;1.00;99.90;;;;;;5077698;28;20198;-71
2021/03/07 05:02:50;;;;;;;6.43;5.83;;;1.00;99.90;;;;;;5069622;28;20193;-71
2021/03/07 05:05:16;;;;;;;7.57;6.30;;;1.00;99.90;;;;;;5039744;28;20468;-71
2021/03/07 05:07:42;;;;;;;8.70;7.00;;;1.00;99.90;;;;;;5036466;28;20171;-71
2021/03/07 05:10:08;;;;;;;6.93;6.13;;;0.80;99.90;;;;;;5047378;28;20212;-70
2021/03/07 05:12:34;;;;;;;7.30;6.60;;;0.80;99.90;;;;;;5054624;28;20170;-70
2021/03/07 05:14:59;;;;;;;11.23;7.07;;;0.70;99.90;;;;;;5036091;28;20534;-71
2021/03/07 05:17:27;;;;;;;8.37;6.43;;;0.70;99.90;;;;;;5036130;28;20241;-70
2021/03/07 05:19:52;;;;;;;7.32;6.63;;;0.70;99.90;;;;;;5035442;28;20291;-70
2021/03/07 05:22:18;;;;;;;7.60;6.63;;;0.70;99.90;;;;;;5035619;28;20241;-70
2021/03/07 05:24:43;;;;;;;6.33;5.73;;;0.70;99.90;;;;;;5037262;28;20174;-71
2021/03/07 05:27:09;;;;;;;8.40;6.77;;;0.70;99.90;;;;;;5036194;28;20166;-71
2021/03/07 05:29:36;;;;;;;7.20;6.50;;;0.70;99.90;;;;;;5035377;28;20197;-71
2021/03/07 05:32:03;;;;;;;7.43;6.57;;;0.70;99.90;;;;;;5035463;28;20205;-70
2021/03/07 05:34:29;;;;;;;7.90;6.90;;;0.80;99.90;;;;;;5042809;28;20174;-71
2021/03/07 05:36:55;;;;;;;7.28;6.57;;;0.80;99.90;;;;;;5056606;28;20890;-71
2021/03/07 05:39:21;;;;;;;8.73;6.87;;;0.80;99.90;;;;;;5056023;28;20180;-71
2021/03/07 05:41:48;;;;;;;6.60;6.10;;;0.80;99.90;;;;;;5056188;28;20170;-71
2021/03/07 05:44:13;;;;;;;8.30;6.78;;;0.70;99.90;;;;;;5055718;28;20174;-70
2021/03/07 05:46:39;;;;;;;6.90;6.10;;;0.80;99.90;;;;;;5055308;28;20187;-72
2021/03/07 05:49:09;;;;;;;9.82;6.75;;;0.60;99.90;;;;;;5052808;28;20194;-70
2021/03/07 05:51:35;;;;;;;6.60;5.90;;;0.60;99.90;;;;;;5055195;28;20533;-71
2021/03/07 05:54:01;;;;;;;8.57;6.72;;;0.50;99.90;;;;;;5055598;28;20683;-71
2021/03/07 05:56:28;;;;;;;8.27;7.47;;;0.50;99.90;;;;;;5055470;28;20480;-71
2021/03/07 05:58:57;;;;;;;7.15;6.45;;;0.50;99.90;;;;;;5055073;28;20174;-72
2021/03/07 06:01:23;;;;;;;7.70;7.00;;;0.50;99.90;;;;;;5053284;28;20624;-70
2021/03/07 06:03:48;;;;;;;9.13;7.33;;;0.40;99.90;;;;;;5053873;28;20261;-71
2021/03/07 06:06:14;;;;;;;8.80;6.40;;;0.30;99.90;;;;;;5054904;28;20474;-72
2021/03/07 06:08:40;;;;;;;7.93;6.30;;;0.20;99.90;;;;;;5054971;28;20222;-71
2021/03/07 06:11:06;;;;;;;7.73;6.83;;;0.10;99.90;;;;;;5054440;28;20198;-71
2021/03/07 06:13:44;;;;;;;9.70;7.00;;;0.10;99.90;;;;;;5056123;28;20428;-71
2021/03/07 06:16:12;;;;;;;9.20;6.97;;;0.10;99.90;;;;;;5054648;28;20725;-71
2021/03/07 06:18:44;;;;;;;8.23;6.65;;;0.10;99.90;;;;;;5054331;28;20178;-70
2021/03/07 06:21:31;;;;;;;7.88;7.07;;;0.20;99.90;;;;;;5053227;28;20691;-71
2021/03/07 06:23:58;;;;;;;10.07;7.95;;;0.20;99.90;;;;;;5053618;28;20484;-72
2021/03/07 06:26:23;;;;;;;7.38;6.50;;;0.20;99.90;;;;;;5054503;28;20538;-71
2021/03/07 06:29:12;;;;;;;9.93;8.30;;;0.30;99.90;;;;;;5055194;28;20166;-72
2021/03/07 06:31:40;;;;;;;7.72;7.03;;;0.30;99.90;;;;;;5052764;28;20186;-71
2021/03/07 06:34:06;;;;;;;7.72;6.35;;;0.30;99.90;;;;;;5054719;28;20166;-71
2021/03/07 06:36:31;;;;;;;7.60;6.70;;;0.30;99.90;;;;;;5054641;28;20181;-71
2021/03/07 06:39:06;;;;;;;9.77;6.97;;;0.40;99.90;;;;;;5054129;28;20196;-71
2021/03/07 06:41:33;;;;;;;7.75;6.97;;;0.40;99.90;;;;;;5053829;28;20216;-71
2021/03/07 06:44:17;;;;;;;9.20;7.60;;;0.50;99.90;;;;;;5053480;28;20235;-71
2021/03/07 06:46:45;;;;;;;7.28;6.28;;;0.50;99.90;;;;;;5051719;28;20185;-71
2021/03/07 06:49:27;;;;;;;11.32;7.75;;;0.50;99.90;;;;;;5034038;28;20702;-70
2021/03/07 06:52:00;;;;;;;7.87;7.10;;;0.50;99.90;;;;;;5033912;28;20171;-71
2021/03/07 06:54:28;;;;;;;9.52;8.00;;;0.50;99.90;;;;;;5033146;28;20439;-72
2021/03/07 06:56:54;;;;;;;8.25;7.00;;;0.50;99.90;;;;;;5034416;28;20254;-71
2021/03/07 06:59:24;;;;;;;8.63;7.30;;;0.60;99.90;;;;;;5033215;28;20250;-71
2021/03/07 07:01:51;;;;;;;10.05;7.53;;;0.60;99.90;;;;;;5046109;28;20416;-71
2021/03/07 07:04:18;;;;;;;7.37;6.57;;;0.60;99.90;;;;;;5054050;28;20173;-70
2021/03/07 07:06:59;;;;;;;9.27;7.00;;;0.60;99.90;;;;;;5053670;28;20817;-71
2021/03/07 07:09:25;;;;;;;9.57;7.55;;;0.60;99.90;;;;;;5046958;28;20251;-70
2021/03/07 07:11:51;;;;;;;8.27;7.10;;;0.70;99.90;;;;;;5054596;28;20170;-72
2021/03/07 07:14:40;;;;;;;9.15;7.05;;;0.70;99.90;;;;;;5054579;28;20163;-71
2021/03/07 07:17:11;;;;;;;8.53;7.63;;;0.70;99.90;;;;;;5054238;28;20219;-70
2021/03/07 07:19:38;;;;;;;9.00;7.03;;;0.70;99.90;;;;;;5041392;28;20425;-71
2021/03/07 07:22:05;;;;;;;8.85;7.57;;;0.80;99.90;;;;;;5033759;28;20441;-71
2021/03/07 07:24:31;;;;;;;9.43;8.10;;;0.80;99.90;;;;;;5042691;28;20197;-71
2021/03/07 07:26:56;;;;;;;8.80;7.80;;;0.80;99.90;;;;;;5059136;28;20259;-71
2021/03/07 07:29:23;;;;;;;8.10;7.30;;;0.80;99.90;;;;;;5064060;28;20174;-71
2021/03/07 07:32:05;;;;;;;11.95;8.63;;;0.90;99.90;;;;;;5063126;28;20210;-71
2021/03/07 07:34:43;;;;;;;8.98;8.18;;;0.90;99.90;;;;;;5044873;28;20630;-73
2021/03/07 07:37:17;;;;;;;16.73;8.40;;;0.90;99.90;;;;;;5044871;28;20730;-70
2021/03/07 07:39:44;;;;;;;9.07;7.90;;;0.90;99.90;;;;;;5041352;28;20478;-71
2021/03/07 07:42:21;;;;;;;8.57;7.57;;;1.00;99.90;;;;;;5053515;28;20497;-70
2021/03/07 07:44:47;;;;;;;8.27;7.33;;;1.00;99.90;;;;;;5053530;28;20471;-70
2021/03/07 07:47:13;;;;;;;10.17;7.70;;;1.10;99.90;;;;;;5032817;28;20475;-70
2021/03/07 07:49:52;;;;;;;8.40;7.50;;;1.10;99.90;;;;;;5032112;28;20965;-72
2021/03/07 07:52:23;;;;;;;8.63;7.70;;;1.20;99.90;;;;;;5032073;28;20405;-71
2021/03/07 07:54:59;;;;;;;9.30;8.30;;;1.30;99.90;;;;;;5039870;28;20425;-72
2021/03/07 07:57:38;;;;;;;9.10;8.20;;;1.30;99.90;;;;;;5053837;28;20405;-74
2021/03/07 08:00:09;;;;;;;10.43;8.50;;;1.30;99.90;;;;;;5051021;28;20452;-71
2021/03/07 08:02:49;;;;;;;8.63;7.87;;;1.40;99.90;;;;;;5051271;28;20448;-72
2021/03/07 08:05:20;;;;;;;8.45;7.63;;;1.40;99.90;;;;;;5046381;28;20421;-71
2021/03/07 08:08:02;;;;;;;9.10;8.10;;;1.50;99.90;;;;;;5037666;28;20262;-71
2021/03/07 08:10:43;;;;;;;9.10;7.47;;;1.60;99.90;;;;;;5050629;28;20525;-72
2021/03/07 08:13:29;;;;;;;9.97;8.30;;;1.70;99.90;;;;;;5045995;28;20428;-72
2021/03/07 08:15:55;;;;;;;9.63;8.63;;;1.70;99.90;;;;;;5035898;28;20433;-72
2021/03/07 08:18:22;;;;;;;9.70;8.60;;;1.80;99.90;;;;;;5048981;28;20436;-71
2021/03/07 08:20:48;;;;;;;10.03;8.70;;;1.80;99.90;;;;;;5039313;28;20547;-72
2021/03/07 08:23:15;;;;;;;8.73;7.73;;;1.90;99.90;;;;;;5036517;28;21022;-71
2021/03/07 08:25:50;;;;;;;11.60;9.27;;;2.00;99.90;;;;;;5039559;28;20225;-71
2021/03/07 08:28:31;;;;;;;9.93;9.03;;;2.10;99.90;;;;;;5049370;28;20415;-71
2021/03/07 08:31:15;;;;;;;9.50;8.60;;;2.20;99.90;;;;;;5048645;28;20455;-72
2021/03/07 08:33:42;;;;;;;10.60;9.30;;;2.30;99.90;;;;;;5073279;28;20389;-72
2021/03/07 08:36:20;;;;;;;8.80;7.90;;;2.40;99.90;;;;;;5073630;28;20412;-73
2021/03/07 08:38:54;;;;;;;10.17;8.63;;;2.50;99.90;;;;;;5064724;28;20458;-73
2021/03/07 08:41:25;;;;;;;9.30;8.40;;;2.60;99.90;;;;;;5057629;28;20487;-72
2021/03/07 08:43:53;;;;;;;10.70;9.23;;;2.70;99.90;;;;;;5058034;28;20412;-71
2021/03/07 08:46:28;;;;;;;9.13;8.30;;;2.80;99.70;;;;;;5057988;28;20424;-72
2021/03/07 08:49:17;;;;;;;8.70;7.90;;;2.90;99.40;;;;;;5058539;28;20401;-72
2021/03/07 08:51:49;;;;;;;10.90;8.60;;;3.00;99.10;;;;;;5056214;28;20417;-72
2021/03/07 08:54:16;;;;;;;10.20;8.03;;;3.20;98.80;;;;;;5053917;28;20457;-71
2021/03/07 08:56:43;;;;;;;10.10;8.00;;;3.20;98.40;;;;;;5047026;28;20468;-71
2021/03/07 08:59:10;;;;;;;8.60;7.37;;;3.40;98.10;;;;;;5037638;28;20814;-71
2021/03/07 09:01:36;;;;;;;8.97;8.07;;;3.50;97.90;;;;;;5051369;28;20460;-72
2021/03/07 09:04:08;;;;;;;8.57;7.77;;;3.50;97.50;;;;;;5040307;28;20840;-72
2021/03/07 09:06:45;;;;;;;8.63;7.73;;;3.70;97.20;;;;;;5037547;28;20430;-71
2021/03/07 09:09:12;;;;;;;8.20;6.87;;;3.70;96.80;;;;;;5039787;28;20825;-71
2021/03/07 09:11:45;;;;;;;9.93;8.90;;;3.90;96.60;;;;;;5054041;28;21059;-70
2021/03/07 09:14:11;;;;;;;9.87;8.87;;;4.00;96.60;;;;;;5053737;28;20422;-70
2021/03/07 09:16:47;;;;;;;10.30;8.97;;;4.10;96.70;;;;;;5055451;28;20431;-71
2021/03/07 09:19:19;;;;;;;10.20;9.10;;;4.20;96.70;;;;;;5055192;28;20176;-71
2021/03/07 09:21:45;;;;;;;11.70;10.50;;;4.40;96.70;;;;;;5059384;28;20822;-70
2021/03/07 09:24:11;;;;;;;11.97;10.50;;;4.50;96.70;;;;;;5064729;28;20416;-70
2021/03/07 09:26:36;;;;;;;12.77;11.57;;;4.60;97.00;;;;;;5054522;28;20212;-71
2021/03/07 09:29:02;;;;;;;12.80;11.33;;;4.70;96.70;;;;;;5049069;28;20944;-70
2021/03/07 09:31:33;;;;;;;13.00;11.70;;;4.80;96.80;;;;;;5059415;28;20263;-70
2021/03/07 09:34:02;;;;;;;14.47;12.50;;;4.80;97.10;;;;;;5054091;28;20416;-70
2021/03/07 09:36:29;;;;;;;16.00;12.67;;;4.90;97.60;;;;;;5054718;28;20425;-70
2021/03/07 09:39:00;;;;;;;15.10;12.47;;;4.90;97.90;;;;;;5055143;28;20475;-70
2021/03/07 09:41:41;;;;;;;16.60;14.30;;;4.90;98.60;;;;;;5056082;28;20470;-71
2021/03/07 09:44:13;;;;;;;15.00;13.60;;;4.90;99.90;;;;;;5038658;28;20451;-71
2021/03/07 09:46:43;;;;;;;17.53;15.20;;;4.80;99.90;;;;;;5049679;28;20958;-71
2021/03/07 09:49:08;;;;;;;16.83;14.97;;;4.80;99.90;;;;;;5061933;28;20413;-71
2021/03/07 09:51:37;;;;;;;17.97;15.50;;;4.70;99.90;;;;;;5035402;28;20923;-71
2021/03/07 09:54:04;;;;;;;18.83;15.43;;;4.60;99.90;;;;;;5035376;28;20486;-71
2021/03/07 09:56:34;;;;;;;17.10;15.23;;;4.40;99.90;;;;;;5034131;28;20424;-71
2021/03/07 09:59:18;;;;;;;18.93;15.00;;;4.40;99.90;;;;;;5035046;28;20474;-69
2021/03/07 10:01:50;;;;;;;16.30;14.57;;;4.40;99.90;;;;;;5035526;28;20558;-70
2021/03/07 10:04:33;;;;;;;21.70;16.57;;;4.30;99.90;;;;;;5034955;28;20489;-70
2021/03/07 10:07:01;;;;;;;20.50;16.87;;;4.30;99.90;;;;;;5035358;28;20420;-70
2021/03/07 10:09:28;;;;;;;17.90;15.17;;;4.40;99.90;;;;;;5034439;28;20869;-70
2021/03/07 10:12:02;;;;;;;17.33;15.47;;;4.50;99.90;;;;;;5036337;28;20431;-70
2021/03/07 10:14:30;;;;;;;18.63;15.43;;;4.50;99.90;;;;;;5038462;28;20859;-71
2021/03/07 10:16:58;;;;;;;18.20;14.27;;;4.50;99.90;;;;;;5036688;28;20408;-69
2021/03/07 10:19:34;;;;;;;16.80;13.33;;;4.40;99.90;;;;;;5034690;28;20439;-71
2021/03/07 10:22:03;;;;;;;15.50;13.83;;;4.40;99.90;;;;;;5053502;28;21037;-70
2021/03/07 10:24:30;;;;;;;14.80;12.53;;;4.50;99.90;;;;;;5054329;28;20408;-70
2021/03/07 10:27:02;;;;;;;14.00;12.00;;;4.60;99.90;;;;;;5054908;28;20574;-70
2021/03/07 10:29:30;;;;;;;12.63;11.30;;;4.70;99.90;;;;;;5054499;28;20749;-71
2021/03/07 10:32:01;;;;;;;13.00;11.57;;;4.90;99.90;;;;;;5052524;28;20450;-71
2021/03/07 10:34:35;;;;;;;12.93;11.53;;;4.90;99.90;;;;;;5052943;28;20423;-70
2021/03/07 10:37:02;;;;;;;12.00;10.90;;;5.00;99.90;;;;;;5054650;28;20436;-71
2021/03/07 10:39:27;;;;;;;16.60;11.47;;;5.10;99.80;;;;;;5054159;28;20404;-70
2021/03/07 10:42:07;;;;;;;12.43;11.10;;;5.10;98.60;;;;;;5052613;28;20467;-71
2021/03/07 10:44:33;;;;;;;12.73;11.33;;;5.30;98.70;;;;;;5053696;28;20182;-70
2021/03/07 10:47:16;;;;;;;12.23;10.93;;;5.40;98.30;;;;;;5056379;28;20422;-69
2021/03/07 10:49:44;;;;;;;11.23;10.13;;;5.40;97.90;;;;;;5055003;28;20220;-69
2021/03/07 10:52:10;;;;;;;12.40;11.10;;;5.50;97.60;;;;;;5054186;28;20416;-71
2021/03/07 10:54:37;;;;;;;11.93;10.53;;;5.40;97.30;;;;;;5052483;28;20425;-70
2021/03/07 10:57:06;;;;;;;10.97;9.93;;;5.30;97.30;;;;;;5054181;28;20166;-70
2021/03/07 10:59:32;;;;;;;13.30;10.90;;;5.40;97.40;;;;;;5052342;28;20415;-70
2021/03/07 11:01:58;;;;;;;11.57;9.70;;;5.60;97.30;;;;;;5053986;28;20405;-71
2021/03/07 11:04:23;;;;;;;9.60;8.63;;;5.90;97.00;;;;;;5052125;28;20698;-70
2021/03/07 11:06:49;;;;;;;9.27;8.37;;;6.20;96.30;;;;;;5053794;28;20673;-71
2021/03/07 11:09:14;;;;;;;8.83;8.03;;;6.30;95.50;;;;;;5053395;28;20171;-71
2021/03/07 11:11:42;;;;;;;9.03;8.13;;;6.40;94.90;;;;;;5052773;28;20175;-70
2021/03/07 11:14:07;;;;;;;9.87;8.40;;;6.60;94.80;;;;;;5051578;28;20765;-71
2021/03/07 11:16:33;;;;;;;8.63;7.93;;;6.70;94.40;;;;;;5053209;28;20516;-71
2021/03/07 11:18:58;;;;;;;9.13;8.30;;;6.60;93.60;;;;;;5053051;28;20197;-71
2021/03/07 11:21:24;;;;;;;9.83;8.83;;;6.60;93.80;;;;;;5065309;28;20220;-71
2021/03/07 11:23:49;;;;;;;9.80;8.80;;;6.60;93.00;;;;;;5073231;28;20166;-71
2021/03/07 11:26:15;;;;;;;14.43;10.03;;;6.80;93.30;;;;;;5040898;28;20253;-69
2021/03/07 11:28:40;;;;;;;9.30;8.40;;;7.00;93.00;;;;;;5051492;28;20604;-70
2021/03/07 11:31:06;;;;;;;14.03;9.43;;;7.00;92.40;;;;;;5035078;28;20702;-70
2021/03/07 11:33:31;;;;;;;9.77;8.77;;;6.90;92.30;;;;;;5033785;28;20167;-71
2021/03/07 11:35:57;;;;;;;10.60;9.10;;;7.10;92.60;;;;;;5041497;28;20560;-70
2021/03/07 11:38:22;;;;;;;12.43;11.20;;;7.20;92.30;;;;;;5033703;28;20181;-71
2021/03/07 11:40:48;;;;;;;12.73;11.53;;;7.10;90.80;;;;;;5033567;28;20726;-71
2021/03/07 11:43:14;;;;;;;14.37;12.87;;;6.90;90.80;;;;;;5033739;28;20178;-70
2021/03/07 11:45:39;;;;;;;13.23;11.93;;;6.80;90.70;;;;;;5034421;28;20237;-71
2021/03/07 11:48:05;;;;;;;13.43;12.10;;;6.80;90.80;;;;;;5033821;28;20179;-70
2021/03/07 11:50:31;;;;;;;11.97;10.77;;;6.90;90.70;;;;;;5035018;28;20918;-70
2021/03/07 11:52:56;;;;;;;11.37;10.30;;;6.80;91.00;;;;;;5035443;28;20585;-70
2021/03/07 11:55:22;;;;;;;11.40;10.30;;;7.00;91.10;;;;;;5036080;28;20266;-71
2021/03/07 11:57:47;;;;;;;10.73;9.83;;;7.20;90.90;;;;;;5048032;28;20242;-70
2021/03/07 12:00:14;;;;;;;9.43;8.53;;;7.50;90.70;;;;;;5044635;28;20214;-71
2021/03/07 12:02:39;;;;;;;9.53;8.60;;;7.30;90.40;;;;;;5035880;28;20170;-71
2021/03/07 12:05:06;;;;;;;9.10;8.40;;;7.00;90.60;;;;;;5051187;28;20425;-71
2021/03/07 12:07:31;;;;;;;9.77;8.90;;;6.90;91.00;;;;;;5052628;28;20187;-70
2021/03/07 12:09:57;;;;;;;10.13;9.13;;;6.50;91.00;;;;;;5039224;28;20441;-70
2021/03/07 12:12:22;;;;;;;10.07;9.10;;;6.40;91.30;;;;;;5032476;28;20209;-70
2021/03/07 12:14:48;;;;;;;9.33;8.43;;;6.30;91.20;;;;;;5048940;28;20221;-70
2021/03/07 12:17:13;;;;;;;11.23;8.63;;;6.10;91.30;;;;;;5049195;28;20228;-71
2021/03/07 12:19:39;;;;;;;13.27;11.17;;;6.10;91.60;;;;;;5038582;28;20206;-70
2021/03/07 12:22:07;;;;;;;11.60;10.40;;;6.10;91.90;;;;;;5070356;28;20192;-70
2021/03/07 12:24:33;;;;;;;10.30;9.40;;;6.10;91.40;;;;;;5072950;28;20555;-69
2021/03/07 12:27:08;;;;;;;10.73;9.60;;;6.20;90.90;;;;;;5071567;28;20501;-69
2021/03/07 12:29:34;;;;;;;10.03;9.13;;;6.20;90.60;;;;;;5048701;28;20256;-70
2021/03/07 12:32:01;;;;;;;10.30;9.30;;;6.20;91.00;;;;;;5033103;28;20405;-71
2021/03/07 12:34:27;;;;;;;12.13;9.17;;;6.30;90.80;;;;;;5033106;28;20408;-70
2021/03/07 12:36:53;;;;;;;10.47;9.47;;;6.40;90.90;;;;;;5033342;28;20898;-70
2021/03/07 12:39:18;;;;;;;10.53;9.43;;;6.50;91.00;;;;;;5036466;28;20170;-69
2021/03/07 12:41:45;;;;;;;11.07;9.97;;;6.50;90.30;;;;;;5052061;28;20791;-71
2021/03/07 12:44:10;;;;;;;10.70;9.70;;;6.50;88.60;;;;;;5051970;28;20232;-72
2021/03/07 12:46:36;;;;;;;10.40;9.50;;;6.50;89.10;;;;;;5052809;28;20405;-70
2021/03/07 12:49:01;;;;;;;12.57;10.67;;;6.50;88.60;;;;;;5051388;28;20276;-70
2021/03/07 12:51:27;;;;;;;11.00;9.90;;;6.40;88.60;;;;;;5037191;28;20277;-70
2021/03/07 12:53:54;;;;;;;12.33;10.97;;;6.30;88.30;;;;;;5032627;28;20182;-70
2021/03/07 12:56:20;;;;;;;10.80;9.80;;;6.20;88.90;;;;;;5034923;28;20163;-70